sensor_id;sensor_type;location;lat;lon;timestamp;temperature;humidity
71291;DHT22;59073;51.994;4.448;2022-08-03T00:01:01;21.52;76.10
71291;DHT22;59073;51.994;4.448;2022-08-03T00:03:26;21.57;76.01
71291;DHT22;59073;51.994;4.448;2022-08-03T00:05:52;21.54;76.17
71291;DHT22;59073;51.994;4.448;2022-08-03T00:08:17;21.50;76.61
71291;DHT22;59073;51.994;4.448;2022-08-03T00:10:43;21.52;76.57
71291;DHT22;59073;51.994;4.448;2022-08-03T00:13:08;21.51;76.35
71291;DHT22;59073;51.994;4.448;2022-08-03T00:15:40;21.47;76.68
71291;DHT22;59073;51.994;4.448;2022-08-03T00:18:06;21.51;76.76
71291;DHT22;59073;51.994;4.448;2022-08-03T00:20:32;21.51;76.75
71291;DHT22;59073;51.994;4.448;2022-08-03T00:22:57;21.54;76.50
71291;DHT22;59073;51.994;4.448;2022-08-03T00:25:23;21.47;76.78
71291;DHT22;59073;51.994;4.448;2022-08-03T00:27:48;21.44;76.85
71291;DHT22;59073;51.994;4.448;2022-08-03T00:30:14;21.45;76.69
71291;DHT22;59073;51.994;4.448;2022-08-03T00:32:39;21.48;76.60
71291;DHT22;59073;51.994;4.448;2022-08-03T00:35:05;21.44;76.81
71291;DHT22;59073;51.994;4.448;2022-08-03T00:37:31;21.45;77.01
71291;DHT22;59073;51.994;4.448;2022-08-03T00:39:56;21.45;76.80
71291;DHT22;59073;51.994;4.448;2022-08-03T00:42:21;21.34;77.26
71291;DHT22;59073;51.994;4.448;2022-08-03T00:44:47;21.33;77.57
71291;DHT22;59073;51.994;4.448;2022-08-03T00:47:12;21.33;77.51
71291;DHT22;59073;51.994;4.448;2022-08-03T00:49:39;21.35;77.25
71291;DHT22;59073;51.994;4.448;2022-08-03T00:52:07;21.33;77.39
71291;DHT22;59073;51.994;4.448;2022-08-03T00:54:36;21.34;77.19
71291;DHT22;59073;51.994;4.448;2022-08-03T00:57:02;21.31;77.64
71291;DHT22;59073;51.994;4.448;2022-08-03T00:59:28;21.27;77.69
71291;DHT22;59073;51.994;4.448;2022-08-03T01:01:55;21.26;77.74
71291;DHT22;59073;51.994;4.448;2022-08-03T01:04:20;21.19;77.75
71291;DHT22;59073;51.994;4.448;2022-08-03T01:07:02;21.17;77.86
71291;DHT22;59073;51.994;4.448;2022-08-03T01:09:52;21.19;77.87
71291;DHT22;59073;51.994;4.448;2022-08-03T01:15:21;21.17;77.80
71291;DHT22;59073;51.994;4.448;2022-08-03T01:18:07;21.15;77.81
71291;DHT22;59073;51.994;4.448;2022-08-03T01:20:39;21.17;77.86
71291;DHT22;59073;51.994;4.448;2022-08-03T01:23:27;21.27;77.22
71291;DHT22;59073;51.994;4.448;2022-08-03T01:26:25;21.21;77.43
71291;DHT22;59073;51.994;4.448;2022-08-03T01:29:11;21.28;77.15
71291;DHT22;59073;51.994;4.448;2022-08-03T01:31:44;21.26;76.73
71291;DHT22;59073;51.994;4.448;2022-08-03T01:34:14;21.21;77.02
71291;DHT22;59073;51.994;4.448;2022-08-03T01:36:50;21.14;77.31
71291;DHT22;59073;51.994;4.448;2022-08-03T01:39:18;21.06;77.64
71291;DHT22;59073;51.994;4.448;2022-08-03T01:41:53;21.06;77.85
71291;DHT22;59073;51.994;4.448;2022-08-03T01:44:25;21.00;77.96
71291;DHT22;59073;51.994;4.448;2022-08-03T01:46:54;20.99;77.68
71291;DHT22;59073;51.994;4.448;2022-08-03T01:49:21;20.99;78.06
71291;DHT22;59073;51.994;4.448;2022-08-03T01:51:49;20.92;78.34
71291;DHT22;59073;51.994;4.448;2022-08-03T01:54:17;20.92;78.28
71291;DHT22;59073;51.994;4.448;2022-08-03T01:56:45;20.93;78.10
71291;DHT22;59073;51.994;4.448;2022-08-03T01:59:15;20.97;77.98
71291;DHT22;59073;51.994;4.448;2022-08-03T02:01:43;20.99;77.97
71291;DHT22;59073;51.994;4.448;2022-08-03T02:04:12;20.92;78.12
71291;DHT22;59073;51.994;4.448;2022-08-03T02:06:40;20.83;79.03
71291;DHT22;59073;51.994;4.448;2022-08-03T02:09:07;20.77;79.21
71291;DHT22;59073;51.994;4.448;2022-08-03T02:11:35;20.72;79.55
71291;DHT22;59073;51.994;4.448;2022-08-03T02:14:04;20.68;79.60
71291;DHT22;59073;51.994;4.448;2022-08-03T02:16:32;20.79;79.20
71291;DHT22;59073;51.994;4.448;2022-08-03T02:19:01;20.82;78.67
71291;DHT22;59073;51.994;4.448;2022-08-03T02:21:30;20.86;78.48
71291;DHT22;59073;51.994;4.448;2022-08-03T02:23:56;20.86;78.46
71291;DHT22;59073;51.994;4.448;2022-08-03T02:26:23;20.75;79.07
71291;DHT22;59073;51.994;4.448;2022-08-03T02:28:55;20.69;79.15
71291;DHT22;59073;51.994;4.448;2022-08-03T02:31:26;20.69;79.45
71291;DHT22;59073;51.994;4.448;2022-08-03T02:33:57;20.65;79.36
71291;DHT22;59073;51.994;4.448;2022-08-03T02:36:28;20.65;79.34
71291;DHT22;59073;51.994;4.448;2022-08-03T02:38:58;20.65;79.49
71291;DHT22;59073;51.994;4.448;2022-08-03T02:41:30;20.71;79.35
71291;DHT22;59073;51.994;4.448;2022-08-03T02:43:59;20.69;79.19
71291;DHT22;59073;51.994;4.448;2022-08-03T02:46:32;20.65;79.40
71291;DHT22;59073;51.994;4.448;2022-08-03T02:49:04;20.61;79.66
71291;DHT22;59073;51.994;4.448;2022-08-03T02:51:33;20.56;79.56
71291;DHT22;59073;51.994;4.448;2022-08-03T02:54:01;20.56;79.72
71291;DHT22;59073;51.994;4.448;2022-08-03T02:56:29;20.48;79.91
71291;DHT22;59073;51.994;4.448;2022-08-03T02:58:57;20.52;79.75
71291;DHT22;59073;51.994;4.448;2022-08-03T03:01:25;20.55;79.61
71291;DHT22;59073;51.994;4.448;2022-08-03T03:03:53;20.53;79.98
71291;DHT22;59073;51.994;4.448;2022-08-03T03:06:20;20.51;80.00
71291;DHT22;59073;51.994;4.448;2022-08-03T03:08:47;20.53;79.77
71291;DHT22;59073;51.994;4.448;2022-08-03T03:11:15;20.48;79.93
71291;DHT22;59073;51.994;4.448;2022-08-03T03:13:43;20.45;80.31
71291;DHT22;59073;51.994;4.448;2022-08-03T03:16:12;20.48;79.99
71291;DHT22;59073;51.994;4.448;2022-08-03T03:18:39;20.42;80.26
71291;DHT22;59073;51.994;4.448;2022-08-03T03:21:07;20.46;79.87
71291;DHT22;59073;51.994;4.448;2022-08-03T03:23:38;20.55;79.46
71291;DHT22;59073;51.994;4.448;2022-08-03T03:26:06;20.53;79.50
71291;DHT22;59073;51.994;4.448;2022-08-03T03:28:32;20.49;79.42
71291;DHT22;59073;51.994;4.448;2022-08-03T03:30:58;20.43;79.48
71291;DHT22;59073;51.994;4.448;2022-08-03T03:33:25;20.43;79.49
71291;DHT22;59073;51.994;4.448;2022-08-03T03:35:51;20.45;79.34
71291;DHT22;59073;51.994;4.448;2022-08-03T03:38:18;20.38;79.48
71291;DHT22;59073;51.994;4.448;2022-08-03T03:40:44;20.29;79.69
71291;DHT22;59073;51.994;4.448;2022-08-03T03:43:10;20.21;79.64
71291;DHT22;59073;51.994;4.448;2022-08-03T03:45:37;20.15;80.53
71291;DHT22;59073;51.994;4.448;2022-08-03T03:48:05;20.15;80.69
71291;DHT22;59073;51.994;4.448;2022-08-03T03:50:33;20.14;80.97
71291;DHT22;59073;51.994;4.448;2022-08-03T03:53:00;20.12;81.35
71291;DHT22;59073;51.994;4.448;2022-08-03T03:55:26;20.17;81.29
71291;DHT22;59073;51.994;4.448;2022-08-03T03:57:51;20.21;81.40
71291;DHT22;59073;51.994;4.448;2022-08-03T04:00:17;20.24;81.04
71291;DHT22;59073;51.994;4.448;2022-08-03T04:02:44;20.26;81.11
71291;DHT22;59073;51.994;4.448;2022-08-03T04:05:10;20.22;81.19
71291;DHT22;59073;51.994;4.448;2022-08-03T04:08:00;20.24;81.32
71291;DHT22;59073;51.994;4.448;2022-08-03T04:10:55;20.25;81.06
71291;DHT22;59073;51.994;4.448;2022-08-03T04:13:34;20.28;81.03
71291;DHT22;59073;51.994;4.448;2022-08-03T04:16:02;20.33;80.94
71291;DHT22;59073;51.994;4.448;2022-08-03T04:18:32;20.32;81.08
71291;DHT22;59073;51.994;4.448;2022-08-03T04:21:01;20.33;80.77
71291;DHT22;59073;51.994;4.448;2022-08-03T04:23:32;20.35;80.58
71291;DHT22;59073;51.994;4.448;2022-08-03T04:26:01;20.39;80.34
71291;DHT22;59073;51.994;4.448;2022-08-03T04:28:29;20.39;80.20
71291;DHT22;59073;51.994;4.448;2022-08-03T04:30:58;20.41;80.52
71291;DHT22;59073;51.994;4.448;2022-08-03T04:33:25;20.41;80.29
71291;DHT22;59073;51.994;4.448;2022-08-03T04:35:57;20.42;80.38
71291;DHT22;59073;51.994;4.448;2022-08-03T04:38:24;20.36;80.52
71291;DHT22;59073;51.994;4.448;2022-08-03T04:40:53;20.31;81.06
71291;DHT22;59073;51.994;4.448;2022-08-03T04:43:21;20.42;80.77
71291;DHT22;59073;51.994;4.448;2022-08-03T04:45:48;20.51;80.67
71291;DHT22;59073;51.994;4.448;2022-08-03T04:48:14;20.55;80.17
71291;DHT22;59073;51.994;4.448;2022-08-03T04:50:41;20.51;80.34
71291;DHT22;59073;51.994;4.448;2022-08-03T04:53:07;20.56;80.18
71291;DHT22;59073;51.994;4.448;2022-08-03T04:55:34;20.77;79.67
71291;DHT22;59073;51.994;4.448;2022-08-03T04:58:01;21.14;78.28
71291;DHT22;59073;51.994;4.448;2022-08-03T05:00:27;21.00;78.77
71291;DHT22;59073;51.994;4.448;2022-08-03T05:02:53;20.92;78.99
71291;DHT22;59073;51.994;4.448;2022-08-03T05:05:20;21.26;77.93
71291;DHT22;59073;51.994;4.448;2022-08-03T05:07:45;21.21;78.15
71291;DHT22;59073;51.994;4.448;2022-08-03T05:10:12;21.08;78.50
71291;DHT22;59073;51.994;4.448;2022-08-03T05:12:39;21.52;77.36
71291;DHT22;59073;51.994;4.448;2022-08-03T05:15:05;22.35;74.88
71291;DHT22;59073;51.994;4.448;2022-08-03T05:17:31;22.97;72.74
71291;DHT22;59073;51.994;4.448;2022-08-03T05:19:58;22.68;73.40
71291;DHT22;59073;51.994;4.448;2022-08-03T05:22:23;22.88;73.34
71291;DHT22;59073;51.994;4.448;2022-08-03T05:24:49;22.51;74.22
71291;DHT22;59073;51.994;4.448;2022-08-03T05:27:15;22.33;75.55
71291;DHT22;59073;51.994;4.448;2022-08-03T05:29:48;22.29;75.80
71291;DHT22;59073;51.994;4.448;2022-08-03T05:32:15;22.09;75.87
71291;DHT22;59073;51.994;4.448;2022-08-03T05:34:41;22.05;76.43
71291;DHT22;59073;51.994;4.448;2022-08-03T05:37:06;22.02;77.05
71291;DHT22;59073;51.994;4.448;2022-08-03T05:39:33;21.99;76.89
71291;DHT22;59073;51.994;4.448;2022-08-03T05:41:59;22.01;77.12
71291;DHT22;59073;51.994;4.448;2022-08-03T05:44:25;22.01;77.10
71291;DHT22;59073;51.994;4.448;2022-08-03T05:46:51;22.10;77.08
71291;DHT22;59073;51.994;4.448;2022-08-03T05:49:17;22.09;76.39
71291;DHT22;59073;51.994;4.448;2022-08-03T05:51:42;22.14;76.80
71291;DHT22;59073;51.994;4.448;2022-08-03T05:54:08;22.10;76.30
71291;DHT22;59073;51.994;4.448;2022-08-03T05:56:33;22.01;76.78
71291;DHT22;59073;51.994;4.448;2022-08-03T05:58:59;22.06;76.89
71291;DHT22;59073;51.994;4.448;2022-08-03T06:01:24;22.12;76.89
71291;DHT22;59073;51.994;4.448;2022-08-03T06:03:50;22.13;76.66
71291;DHT22;59073;51.994;4.448;2022-08-03T06:06:17;22.50;76.22
71291;DHT22;59073;51.994;4.448;2022-08-03T06:08:44;22.54;74.91
71291;DHT22;59073;51.994;4.448;2022-08-03T06:11:10;22.54;75.36
71291;DHT22;59073;51.994;4.448;2022-08-03T06:13:35;22.65;74.82
71291;DHT22;59073;51.994;4.448;2022-08-03T06:16:01;22.61;74.23
71291;DHT22;59073;51.994;4.448;2022-08-03T06:18:27;22.71;74.11
71291;DHT22;59073;51.994;4.448;2022-08-03T06:20:53;22.61;74.18
71291;DHT22;59073;51.994;4.448;2022-08-03T06:23:18;22.51;74.56
71291;DHT22;59073;51.994;4.448;2022-08-03T06:25:44;22.81;73.90
71291;DHT22;59073;51.994;4.448;2022-08-03T06:28:10;22.84;73.70
71291;DHT22;59073;51.994;4.448;2022-08-03T06:30:38;22.91;73.55
71291;DHT22;59073;51.994;4.448;2022-08-03T06:33:03;23.12;73.10
71291;DHT22;59073;51.994;4.448;2022-08-03T06:35:29;23.10;72.86
71291;DHT22;59073;51.994;4.448;2022-08-03T06:37:54;23.18;72.77
71291;DHT22;59073;51.994;4.448;2022-08-03T06:40:21;23.23;72.35
71291;DHT22;59073;51.994;4.448;2022-08-03T06:42:57;23.23;73.19
71291;DHT22;59073;51.994;4.448;2022-08-03T06:45:24;23.38;72.55
71291;DHT22;59073;51.994;4.448;2022-08-03T06:50:28;23.86;70.32
71291;DHT22;59073;51.994;4.448;2022-08-03T06:52:54;24.03;69.86
71291;DHT22;59073;51.994;4.448;2022-08-03T06:55:19;24.10;69.63
71291;DHT22;59073;51.994;4.448;2022-08-03T06:57:45;24.09;69.73
71291;DHT22;59073;51.994;4.448;2022-08-03T07:00:11;24.68;68.35
71291;DHT22;59073;51.994;4.448;2022-08-03T07:02:37;24.30;68.49
71291;DHT22;59073;51.994;4.448;2022-08-03T07:05:03;24.09;68.98
71291;DHT22;59073;51.994;4.448;2022-08-03T07:07:28;23.84;69.32
71291;DHT22;59073;51.994;4.448;2022-08-03T07:09:54;23.51;70.37
71291;DHT22;59073;51.994;4.448;2022-08-03T07:12:19;23.79;70.77
71291;DHT22;59073;51.994;4.448;2022-08-03T07:14:45;24.09;69.72
71291;DHT22;59073;51.994;4.448;2022-08-03T07:17:10;24.27;68.85
71291;DHT22;59073;51.994;4.448;2022-08-03T07:19:36;24.17;68.67
71291;DHT22;59073;51.994;4.448;2022-08-03T07:22:01;24.28;68.66
71291;DHT22;59073;51.994;4.448;2022-08-03T07:24:28;24.48;68.00
71291;DHT22;59073;51.994;4.448;2022-08-03T07:26:53;24.42;68.39
71291;DHT22;59073;51.994;4.448;2022-08-03T07:29:19;24.52;68.32
71291;DHT22;59073;51.994;4.448;2022-08-03T07:31:44;24.85;67.16
71291;DHT22;59073;51.994;4.448;2022-08-03T07:34:10;25.03;66.65
71291;DHT22;59073;51.994;4.448;2022-08-03T07:36:35;25.10;66.40
71291;DHT22;59073;51.994;4.448;2022-08-03T07:39:01;25.30;65.54
71291;DHT22;59073;51.994;4.448;2022-08-03T07:41:26;25.57;65.69
71291;DHT22;59073;51.994;4.448;2022-08-03T07:43:52;25.80;64.19
71291;DHT22;59073;51.994;4.448;2022-08-03T07:46:17;25.32;65.03
71291;DHT22;59073;51.994;4.448;2022-08-03T07:48:43;25.18;66.19
71291;DHT22;59073;51.994;4.448;2022-08-03T07:51:08;25.05;65.87
71291;DHT22;59073;51.994;4.448;2022-08-03T07:53:33;25.19;66.82
71291;DHT22;59073;51.994;4.448;2022-08-03T07:55:59;25.29;65.70
71291;DHT22;59073;51.994;4.448;2022-08-03T07:58:24;25.43;64.76
71291;DHT22;59073;51.994;4.448;2022-08-03T08:00:50;25.51;65.72
71291;DHT22;59073;51.994;4.448;2022-08-03T08:03:17;25.71;64.70
71291;DHT22;59073;51.994;4.448;2022-08-03T08:05:43;25.84;63.65
71291;DHT22;59073;51.994;4.448;2022-08-03T08:08:09;26.62;63.38
71291;DHT22;59073;51.994;4.448;2022-08-03T08:10:34;27.04;62.15
71291;DHT22;59073;51.994;4.448;2022-08-03T08:13:00;27.24;61.46
71291;DHT22;59073;51.994;4.448;2022-08-03T08:15:26;26.83;61.15
71291;DHT22;59073;51.994;4.448;2022-08-03T08:17:55;26.55;62.19
71291;DHT22;59073;51.994;4.448;2022-08-03T08:20:24;26.70;62.28
71291;DHT22;59073;51.994;4.448;2022-08-03T08:22:50;26.69;61.85
71291;DHT22;59073;51.994;4.448;2022-08-03T08:25:15;26.48;62.22
71291;DHT22;59073;51.994;4.448;2022-08-03T08:27:46;26.64;62.24
71291;DHT22;59073;51.994;4.448;2022-08-03T08:30:15;27.03;62.11
71291;DHT22;59073;51.994;4.448;2022-08-03T08:32:41;27.13;60.44
71291;DHT22;59073;51.994;4.448;2022-08-03T08:35:08;27.44;60.38
71291;DHT22;59073;51.994;4.448;2022-08-03T08:37:35;27.91;60.62
71291;DHT22;59073;51.994;4.448;2022-08-03T08:47:48;28.22;57.45
71291;DHT22;59073;51.994;4.448;2022-08-03T08:50:19;28.06;58.48
71291;DHT22;59073;51.994;4.448;2022-08-03T08:52:47;28.02;57.89
71291;DHT22;59073;51.994;4.448;2022-08-03T08:55:20;28.27;57.89
71291;DHT22;59073;51.994;4.448;2022-08-03T08:57:59;28.60;56.28
71291;DHT22;59073;51.994;4.448;2022-08-03T09:00:26;28.71;56.43
71291;DHT22;59073;51.994;4.448;2022-08-03T09:02:52;28.80;56.47
71291;DHT22;59073;51.994;4.448;2022-08-03T09:05:19;29.05;55.88
71291;DHT22;59073;51.994;4.448;2022-08-03T09:07:46;28.68;56.55
71291;DHT22;59073;51.994;4.448;2022-08-03T09:10:14;28.23;57.76
71291;DHT22;59073;51.994;4.448;2022-08-03T09:12:51;28.24;57.67
71291;DHT22;59073;51.994;4.448;2022-08-03T09:17:45;28.40;58.16
71291;DHT22;59073;51.994;4.448;2022-08-03T09:20:12;28.49;57.51
71291;DHT22;59073;51.994;4.448;2022-08-03T09:23:10;28.29;57.71
71291;DHT22;59073;51.994;4.448;2022-08-03T09:25:40;28.24;57.97
71291;DHT22;59073;51.994;4.448;2022-08-03T09:28:14;28.22;58.13
71291;DHT22;59073;51.994;4.448;2022-08-03T09:30:44;28.16;58.70
71291;DHT22;59073;51.994;4.448;2022-08-03T09:33:13;28.20;57.31
71291;DHT22;59073;51.994;4.448;2022-08-03T09:35:47;28.41;57.70
71291;DHT22;59073;51.994;4.448;2022-08-03T09:38:24;28.59;57.55
71291;DHT22;59073;51.994;4.448;2022-08-03T09:40:54;28.53;56.77
71291;DHT22;59073;51.994;4.448;2022-08-03T09:43:20;28.91;57.19
71291;DHT22;59073;51.994;4.448;2022-08-03T09:45:46;29.00;56.08
71291;DHT22;59073;51.994;4.448;2022-08-03T09:48:30;29.28;55.46
71291;DHT22;59073;51.994;4.448;2022-08-03T09:51:01;29.45;55.46
71291;DHT22;59073;51.994;4.448;2022-08-03T13:19:35;31.04;47.32
71291;DHT22;59073;51.994;4.448;2022-08-03T13:22:45;31.15;48.90
71291;DHT22;59073;51.994;4.448;2022-08-03T13:25:51;31.04;48.55
71291;DHT22;59073;51.994;4.448;2022-08-03T13:31:46;30.60;48.86
71291;DHT22;59073;51.994;4.448;2022-08-03T13:41:00;30.37;49.90
71291;DHT22;59073;51.994;4.448;2022-08-03T13:43:26;30.35;50.03
71291;DHT22;59073;51.994;4.448;2022-08-03T13:45:53;30.49;49.12
71291;DHT22;59073;51.994;4.448;2022-08-03T13:48:19;30.28;49.04
71291;DHT22;59073;51.994;4.448;2022-08-03T13:50:44;30.57;50.08
71291;DHT22;59073;51.994;4.448;2022-08-03T13:53:17;30.75;49.81
71291;DHT22;59073;51.994;4.448;2022-08-03T13:55:49;30.85;49.89
71291;DHT22;59073;51.994;4.448;2022-08-03T13:58:14;30.92;49.29
71291;DHT22;59073;51.994;4.448;2022-08-03T14:00:48;31.03;49.92
71291;DHT22;59073;51.994;4.448;2022-08-03T14:03:14;31.09;48.76
71291;DHT22;59073;51.994;4.448;2022-08-03T14:05:42;30.83;49.67
71291;DHT22;59073;51.994;4.448;2022-08-03T14:08:10;30.64;48.61
71291;DHT22;59073;51.994;4.448;2022-08-03T14:10:40;30.69;49.45
71291;DHT22;59073;51.994;4.448;2022-08-03T14:13:12;30.57;49.36
71291;DHT22;59073;51.994;4.448;2022-08-03T14:15:45;30.71;50.27
71291;DHT22;59073;51.994;4.448;2022-08-03T14:18:10;30.81;49.94
71291;DHT22;59073;51.994;4.448;2022-08-03T14:24:00;30.54;49.93
71291;DHT22;59073;51.994;4.448;2022-08-03T14:26:39;30.62;50.17
71291;DHT22;59073;51.994;4.448;2022-08-03T14:29:04;30.48;49.57
71291;DHT22;59073;51.994;4.448;2022-08-03T14:31:32;30.27;49.99
71291;DHT22;59073;51.994;4.448;2022-08-03T14:33:58;30.20;49.89
71291;DHT22;59073;51.994;4.448;2022-08-03T14:36:38;30.07;50.08
71291;DHT22;59073;51.994;4.448;2022-08-03T14:39:09;30.11;50.45
71291;DHT22;59073;51.994;4.448;2022-08-03T14:41:37;30.18;50.96
71291;DHT22;59073;51.994;4.448;2022-08-03T14:44:02;30.30;49.99
71291;DHT22;59073;51.994;4.448;2022-08-03T14:46:32;30.31;49.76
71291;DHT22;59073;51.994;4.448;2022-08-03T14:48:57;30.18;50.36
71291;DHT22;59073;51.994;4.448;2022-08-03T14:51:26;30.28;49.97
71291;DHT22;59073;51.994;4.448;2022-08-03T14:53:51;30.35;50.66
71291;DHT22;59073;51.994;4.448;2022-08-03T14:56:17;30.28;50.93
71291;DHT22;59073;51.994;4.448;2022-08-03T14:58:42;30.30;50.65
71291;DHT22;59073;51.994;4.448;2022-08-03T15:01:08;30.35;50.01
71291;DHT22;59073;51.994;4.448;2022-08-03T15:03:33;30.18;49.23
71291;DHT22;59073;51.994;4.448;2022-08-03T15:05:59;30.06;49.59
71291;DHT22;59073;51.994;4.448;2022-08-03T15:08:25;30.01;48.97
71291;DHT22;59073;51.994;4.448;2022-08-03T15:10:51;30.13;48.91
71291;DHT22;59073;51.994;4.448;2022-08-03T15:13:18;30.24;48.28
71291;DHT22;59073;51.994;4.448;2022-08-03T15:15:44;30.35;48.25
71291;DHT22;59073;51.994;4.448;2022-08-03T15:18:09;30.38;47.83
71291;DHT22;59073;51.994;4.448;2022-08-03T15:20:45;30.20;48.41
71291;DHT22;59073;51.994;4.448;2022-08-03T15:23:15;30.00;49.37
71291;DHT22;59073;51.994;4.448;2022-08-03T15:25:42;29.91;49.62
71291;DHT22;59073;51.994;4.448;2022-08-03T15:28:08;30.00;49.62
71291;DHT22;59073;51.994;4.448;2022-08-03T15:30:40;30.24;48.97
71291;DHT22;59073;51.994;4.448;2022-08-03T15:33:08;30.21;47.96
71291;DHT22;59073;51.994;4.448;2022-08-03T15:35:34;30.35;48.44
71291;DHT22;59073;51.994;4.448;2022-08-03T15:38:02;30.37;47.75
71291;DHT22;59073;51.994;4.448;2022-08-03T15:40:28;30.27;47.94
71291;DHT22;59073;51.994;4.448;2022-08-03T15:42:55;30.14;48.08
71291;DHT22;59073;51.994;4.448;2022-08-03T15:45:36;29.83;48.46
71291;DHT22;59073;51.994;4.448;2022-08-03T15:48:05;29.81;49.42
71291;DHT22;59073;51.994;4.448;2022-08-03T15:50:33;29.91;49.95
71291;DHT22;59073;51.994;4.448;2022-08-03T15:53:05;29.89;49.43
71291;DHT22;59073;51.994;4.448;2022-08-03T15:55:51;29.93;49.87
71291;DHT22;59073;51.994;4.448;2022-08-03T15:58:24;29.81;50.48
71291;DHT22;59073;51.994;4.448;2022-08-03T16:00:59;29.67;50.32
71291;DHT22;59073;51.994;4.448;2022-08-03T16:03:27;29.69;50.22
71291;DHT22;59073;51.994;4.448;2022-08-03T16:05:59;29.69;50.23
71291;DHT22;59073;51.994;4.448;2022-08-03T16:08:27;29.59;50.91
71291;DHT22;59073;51.994;4.448;2022-08-03T16:11:05;29.63;50.40
71291;DHT22;59073;51.994;4.448;2022-08-03T16:13:36;29.70;49.02
71291;DHT22;59073;51.994;4.448;2022-08-03T16:16:02;29.73;50.27
71291;DHT22;59073;51.994;4.448;2022-08-03T16:18:30;29.79;49.47
71291;DHT22;59073;51.994;4.448;2022-08-03T16:20:56;29.91;49.08
71291;DHT22;59073;51.994;4.448;2022-08-03T16:23:31;30.03;49.15
71291;DHT22;59073;51.994;4.448;2022-08-03T16:25:56;30.06;49.28
71291;DHT22;59073;51.994;4.448;2022-08-03T16:28:22;30.09;50.49
71291;DHT22;59073;51.994;4.448;2022-08-03T16:30:48;30.14;50.19
71291;DHT22;59073;51.994;4.448;2022-08-03T16:33:16;30.03;49.27
71291;DHT22;59073;51.994;4.448;2022-08-03T16:35:58;30.06;49.08
71291;DHT22;59073;51.994;4.448;2022-08-03T16:38:27;30.04;49.74
71291;DHT22;59073;51.994;4.448;2022-08-03T16:40:56;30.17;49.45
71291;DHT22;59073;51.994;4.448;2022-08-03T16:43:24;30.01;49.79
71291;DHT22;59073;51.994;4.448;2022-08-03T16:46:06;30.01;50.43
71291;DHT22;59073;51.994;4.448;2022-08-03T16:49:07;29.99;50.72
71291;DHT22;59073;51.994;4.448;2022-08-03T16:51:46;30.09;50.45
71291;DHT22;59073;51.994;4.448;2022-08-03T16:54:11;30.18;49.15
71291;DHT22;59073;51.994;4.448;2022-08-03T16:56:37;30.23;48.50
71291;DHT22;59073;51.994;4.448;2022-08-03T17:06:18;30.18;51.01
71291;DHT22;59073;51.994;4.448;2022-08-03T17:09:21;30.21;49.54
71291;DHT22;59073;51.994;4.448;2022-08-03T17:11:57;30.31;49.24
71291;DHT22;59073;51.994;4.448;2022-08-03T17:14:47;30.34;49.42
71291;DHT22;59073;51.994;4.448;2022-08-03T17:20:54;30.24;50.06
71291;DHT22;59073;51.994;4.448;2022-08-03T17:26:16;30.06;50.09
71291;DHT22;59073;51.994;4.448;2022-08-03T17:29:04;30.04;49.72
71291;DHT22;59073;51.994;4.448;2022-08-03T17:31:57;29.89;49.74
71291;DHT22;59073;51.994;4.448;2022-08-03T17:35:25;29.99;50.21
71291;DHT22;59073;51.994;4.448;2022-08-03T17:41:54;29.53;50.65
71291;DHT22;59073;51.994;4.448;2022-08-03T17:44:38;29.38;50.44
71291;DHT22;59073;51.994;4.448;2022-08-03T17:47:09;29.02;50.70
71291;DHT22;59073;51.994;4.448;2022-08-03T17:49:37;28.72;52.99
71291;DHT22;59073;51.994;4.448;2022-08-03T17:52:29;28.71;52.26
71291;DHT22;59073;51.994;4.448;2022-08-03T17:55:14;28.54;53.41
71291;DHT22;59073;51.994;4.448;2022-08-03T17:58:02;28.56;53.52
71291;DHT22;59073;51.994;4.448;2022-08-03T18:00:42;28.56;53.07
71291;DHT22;59073;51.994;4.448;2022-08-03T18:03:49;28.61;53.03
71291;DHT22;59073;51.994;4.448;2022-08-03T18:06:17;28.53;53.71
71291;DHT22;59073;51.994;4.448;2022-08-03T18:08:53;28.57;54.10
71291;DHT22;59073;51.994;4.448;2022-08-03T18:11:23;28.74;52.41
71291;DHT22;59073;51.994;4.448;2022-08-03T18:14:15;29.01;51.54
71291;DHT22;59073;51.994;4.448;2022-08-03T18:16:56;29.42;50.44
71291;DHT22;59073;51.994;4.448;2022-08-03T18:19:27;29.87;49.69
71291;DHT22;59073;51.994;4.448;2022-08-03T18:21:54;30.18;48.98
71291;DHT22;59073;51.994;4.448;2022-08-03T18:27:17;30.79;47.56
71291;DHT22;59073;51.994;4.448;2022-08-03T18:29:56;30.83;46.96
71291;DHT22;59073;51.994;4.448;2022-08-03T18:32:29;30.83;47.85
71291;DHT22;59073;51.994;4.448;2022-08-03T18:35:01;31.02;47.66
71291;DHT22;59073;51.994;4.448;2022-08-03T18:37:37;31.16;46.48
71291;DHT22;59073;51.994;4.448;2022-08-03T18:50:49;30.47;48.59
71291;DHT22;59073;51.994;4.448;2022-08-03T18:53:23;30.40;47.57
71291;DHT22;59073;51.994;4.448;2022-08-03T18:59:39;29.74;49.03
71291;DHT22;59073;51.994;4.448;2022-08-03T19:02:42;29.48;49.53
71291;DHT22;59073;51.994;4.448;2022-08-03T19:05:57;29.10;51.71
71291;DHT22;59073;51.994;4.448;2022-08-03T19:15:08;27.51;56.47
71291;DHT22;59073;51.994;4.448;2022-08-03T19:17:43;27.00;59.53
71291;DHT22;59073;51.994;4.448;2022-08-03T19:20:39;26.57;60.69
71291;DHT22;59073;51.994;4.448;2022-08-03T19:23:10;26.22;60.90
71291;DHT22;59073;51.994;4.448;2022-08-03T19:25:42;26.09;60.51
71291;DHT22;59073;51.994;4.448;2022-08-03T19:28:21;26.02;63.43
71291;DHT22;59073;51.994;4.448;2022-08-03T19:30:47;25.90;63.25
71291;DHT22;59073;51.994;4.448;2022-08-03T19:33:16;25.75;65.44
71291;DHT22;59073;51.994;4.448;2022-08-03T19:35:45;25.67;66.10
71291;DHT22;59073;51.994;4.448;2022-08-03T19:38:15;25.69;62.87
71291;DHT22;59073;51.994;4.448;2022-08-03T19:40:44;25.74;61.59
71291;DHT22;59073;51.994;4.448;2022-08-03T19:43:24;25.80;60.32
71291;DHT22;59073;51.994;4.448;2022-08-03T19:45:51;25.82;60.21
71291;DHT22;59073;51.994;4.448;2022-08-03T19:48:47;25.87;61.08
71291;DHT22;59073;51.994;4.448;2022-08-03T19:51:37;25.82;62.11
71291;DHT22;59073;51.994;4.448;2022-08-03T19:54:15;25.63;65.39
71291;DHT22;59073;51.994;4.448;2022-08-03T19:56:54;25.40;67.66
71291;DHT22;59073;51.994;4.448;2022-08-03T20:00:12;25.26;63.33
71291;DHT22;59073;51.994;4.448;2022-08-03T20:07:08;25.50;61.30
71291;DHT22;59073;51.994;4.448;2022-08-03T20:10:18;25.47;60.86
71291;DHT22;59073;51.994;4.448;2022-08-03T20:26:48;24.76;65.03
71291;DHT22;59073;51.994;4.448;2022-08-03T20:33:03;24.86;64.23
71291;DHT22;59073;51.994;4.448;2022-08-03T20:35:53;24.76;66.08
71291;DHT22;59073;51.994;4.448;2022-08-03T20:45:09;24.73;64.66
71291;DHT22;59073;51.994;4.448;2022-08-03T20:47:46;24.69;65.23
71291;DHT22;59073;51.994;4.448;2022-08-03T20:50:47;24.76;65.13
71291;DHT22;59073;51.994;4.448;2022-08-03T20:53:21;24.86;64.22
71291;DHT22;59073;51.994;4.448;2022-08-03T20:59:49;25.23;66.75
71291;DHT22;59073;51.994;4.448;2022-08-03T21:13:44;24.48;65.37